• Join FlightAware (Why Join?)
  • Login
  • US Flag 
04:27PM EDT


 

Airport Tracker/Info


-or-


 

Live Flight TrackerFlight Track Log ✈ SAS2813 ✈ 26-Oct-2013 ✈ EKCH / CPH - LEAL / ALC

Flight Track Log - Related Links

Times and Time Zones

All times are in EDT time to prevent confusion due to time zone crossing. See the SAS2813 flight status page for this flight to view local times or setup timezone preferences in your user account.

Time Position Orientation Groundspeed Altitude Reporting Facility
EDT Latitude Longitude Course Direction KTS MPH feet Rate Location/Type
10:18AM 55.6120 12.6350 180° South 94 108  Level FlightAware
10:19AM 55.5930 12.6050 222° Southwest 140 161 1,400 1,500 Climbing FlightAware
10:20AM 55.5730 12.5710 224° Southwest 195 224 2,000 1,740 Climbing FlightAware
10:20AM 55.5480 12.5180 230° Southwest 230 265 3,600 3,360 Climbing FlightAware
10:21AM 55.5290 12.4660 237° Southwest 225 259 5,900 3,420 Climbing FlightAware
10:22AM 55.5090 12.4100 238° Southwest 246 283 7,500 1,860 Climbing FlightAware
10:22AM 55.4790 12.3260 238° Southwest 309 356 8,400 1,920 Climbing FlightAware
10:23AM 55.4460 12.2370 237° Southwest 320 368 10,300 2,760 Climbing FlightAware
10:24AM 55.4180 12.1620 237° Southwest 325 374 11,900 2,460 Climbing FlightAware
10:24AM 55.3870 12.0770 237° Southwest 340 391 13,300 2,280 Climbing FlightAware
10:25AM 55.3420 11.9560 237° Southwest 351 404 15,300 2,400 Climbing FlightAware
10:26AM 55.3090 11.8680 237° Southwest 351 404 16,900 2,220 Climbing FlightAware
10:26AM 55.2800 11.7880 238° Southwest 360 414 17,900 1,680 Climbing FlightAware
10:27AM 55.2450 11.6930 237° Southwest 371 427 19,000 1,800 Climbing FlightAware
10:27AM 55.2120 11.6060 236° Southwest 377 434 20,100 1,920 Climbing FlightAware
10:28AM 55.1760 11.5100 237° Southwest 381 438 21,300 1,800 Climbing FlightAware
10:29AM 55.1420 11.4190 237° Southwest 385 443 22,300 1,500 Climbing FlightAware
10:29AM 55.1000 11.3090 236° Southwest 393 452 23,300 1,500 Climbing FlightAware
10:30AM 55.0590 11.1990 237° Southwest 399 459 24,400 1,500 Climbing FlightAware
10:31AM 55.0190 11.0950 236° Southwest 405 466 25,300 1,260 Climbing FlightAware
10:31AM 54.9690 10.9660 236° Southwest 411 473 26,300 1,260 Climbing FlightAware
10:32AM 54.9260 10.8550 236° Southwest 415 478 27,200 1,380 Climbing FlightAware
10:33AM 54.8920 10.7660 236° Southwest 414 476 28,000 1,260 Climbing FlightAware
10:33AM 54.8560 10.6740 236° Southwest 418 481 28,600 1,740 Climbing FlightAware
10:34AM 54.8120 10.5600 236° Southwest 399 459 30,300 1,920 Climbing FlightAware
10:35AM 54.7650 10.4420 235° Southwest 393 452 31,500 1,260 Climbing FlightAware
10:35AM 54.7330 10.3600 236° Southwest 401 461 31,900 960 Climbing FlightAware
10:36AM 54.6890 10.2470 236° Southwest 402 463 32,700 900 Climbing FlightAware
10:37AM 54.6460 10.1400 235° Southwest 409 471 33,200 960 Climbing FlightAware
10:37AM 54.6040 10.0340 236° Southwest 409 471 34,000 960 Climbing FlightAware
10:38AM 54.5560 9.9150 235° Southwest 411 473 34,600 720 Climbing FlightAware
10:39AM 54.5140 9.8100 235° Southwest 414 476 35,100 600 Climbing FlightAware
10:39AM 54.4620 9.6830 235° Southwest 423 487 35,500 780 Climbing FlightAware
10:40AM 54.4190 9.5750 236° Southwest 421 484 36,200 900 Climbing FlightAware
10:41AM 54.3720 9.4600 235° Southwest 421 484 36,700 540 Climbing FlightAware
10:42AM 54.3010 9.2870 235° Southwest 428 493 37,200 600 Climbing FlightAware
10:42AM 54.2560 9.1780 235° Southwest 424 488 37,800 600 Climbing FlightAware
10:43AM 54.2130 9.0770 234° Southwest 422 486 38,000 120 Climbing FlightAware
10:44AM 54.1530 8.9890 221° Southwest 425 489 38,000  Level FlightAware
10:44AM 54.0910 8.9000 220° Southwest 425 489 38,000  Level FlightAware
10:45AM 54.0360 8.8200 221° Southwest 427 491 38,000  Level FlightAware
10:46AM 53.9410 8.6830 220° Southwest 427 491 38,000  Level FlightAware
10:47AM 53.8460 8.5480 220° Southwest 425 489 38,000  Level FlightAware
10:48AM 53.7740 8.4470 220° Southwest 427 491 38,000  Level FlightAware
10:48AM 53.7210 8.3720 220° Southwest 427 491 38,000  Level FlightAware
10:49AM 53.6590 8.2850 220° Southwest 428 493 38,000  Level FlightAware
10:50AM 53.5920 8.1910 220° Southwest 430 495 38,000  Level FlightAware
10:50AM 53.5380 8.1160 220° Southwest 429 494 38,000  Level FlightAware
10:51AM 53.4910 8.0520 219° Southwest 431 496 38,000  Level FlightAware
10:52AM 53.4290 7.9660 220° Southwest 431 496 38,000  Level FlightAware
10:52AM 53.3540 7.8620 220° Southwest 432 497 38,000  Level FlightAware
10:53AM 53.2820 7.7630 219° Southwest 432 497 38,000  Level FlightAware
10:54AM 53.2220 7.6820 219° Southwest 432 497 38,000  Level FlightAware
10:55AM 53.1530 7.5880 219° Southwest 432 497 38,000  Level FlightAware
10:55AM 53.0840 7.4950 219° Southwest 430 495 38,000  Level FlightAware
10:56AM 53.0160 7.4030 219° Southwest 428 493 38,000  Level FlightAware
10:57AM 52.9670 7.3370 219° Southwest 428 493 38,000  Level FlightAware
10:57AM 52.9090 7.2590 219° Southwest 428 493 38,000  Level FlightAware
10:58AM 52.8460 7.1760 219° Southwest 428 493 38,000  Level FlightAware
10:58AM 52.8020 7.1170 219° Southwest 427 491 38,000  Level FlightAware
10:59AM 52.7420 7.0370 219° Southwest 426 490 38,000  Level FlightAware
11:00AM 52.6770 6.9520 218° Southwest 425 489 38,000  Level FlightAware
11:01AM 52.6080 6.8610 219° Southwest 424 488 38,000  Level FlightAware
11:01AM 52.5500 6.7850 219° Southwest 424 488 38,000  Level FlightAware
11:02AM 52.4750 6.6860 219° Southwest 425 489 38,000  Level FlightAware
11:03AM 52.4170 6.6110 218° Southwest 425 489 38,000  Level FlightAware
11:03AM 52.3580 6.5350 218° Southwest 425 489 38,000  Level FlightAware
11:04AM 52.2840 6.4390 218° Southwest 425 489 38,000  Level FlightAware
11:04AM 52.2456 6.3897 218° Southwest 425 489 38,000  Level FlightAware ADS-B (EDLW / DTM)
11:05AM 52.1971 6.3274 218° Southwest 425 489 38,000  Level FlightAware ADS-B (EDLW / DTM)
11:06AM 52.1352 6.2482 218° Southwest 425 489 38,000  Level FlightAware ADS-B (EDLW / DTM)
11:06AM 52.0853 6.1847 218° Southwest 426 490 38,000  Level FlightAware ADS-B (EDLW / DTM)
11:07AM 52.0029 6.0799 218° Southwest 426 490 38,000  Level FlightAware ADS-B (EDLW / DTM)
11:08AM 51.9489 6.0118 218° Southwest 427 491 38,000  Level FlightAware ADS-B (EDLW / DTM)
11:09AM 51.8630 5.9040 218° Southwest 426 490 38,000  Level FlightAware
11:09AM 51.7924 5.8150 218° Southwest 428 493 38,000  Level FlightAware ADS-B (EDLW / DTM)
11:10AM 51.7411 5.7508 218° Southwest 428 493 38,000  Level FlightAware ADS-B (EDLW / DTM)
11:11AM 51.6870 5.6840 218° Southwest 428 493 38,000  Level FlightAware
11:11AM 51.6806 5.6765 218° Southwest 456 525 38,000  Level FlightAware UK
11:11AM 51.6526 5.6410 218° Southwest 428 493 38,000  Level FlightAware ADS-B (EDLW / DTM)
11:12AM 51.5690 5.5370 218° Southwest 426 490 38,000  Level FlightAware
11:13AM 51.5030 5.4560 218° Southwest 426 490 38,000  Level FlightAware
11:13AM 51.4850 5.4342 218° Southwest 456 525 38,000  Level FlightAware UK
11:14AM 51.3913 5.3198 218° Southwest 456 525 38,000  Level FlightAware UK
11:14AM 51.3860 5.3130 218° Southwest 425 489 38,000  Level FlightAware
11:15AM 51.3130 5.2220 218° Southwest 427 491 38,000  Level FlightAware
11:15AM 51.2490 5.1450 218° Southwest 426 490 38,000  Level FlightAware
11:15AM 51.2427 5.1378 218° Southwest 458 527 38,000  Level FlightAware UK
11:16AM 51.1720 5.0520 217° Southwest 424 488 38,000  Level FlightAware
11:17AM 51.0970 4.9610 217° Southwest 422 486 38,000  Level FlightAware
11:18AM 51.0280 4.8790 217° Southwest 421 484 38,000 -120 Level FlightAware
11:18AM 51.0068 4.8542 217° Southwest 454 522 37,900 -180 Descending FlightAware UK
11:18AM 50.9509 4.7871 217° Southwest 452 520 37,900 120 Level FlightAware UK
11:18AM 50.9560 4.7920 217° Southwest 420 483 38,000 120 Climbing FlightAware
11:19AM 50.8930 4.7180 217° Southwest 420 483 38,000 -180 Level FlightAware
11:19AM 50.8765 4.6984 217° Southwest 454 522 37,900  Descending FlightAware UK
11:19AM 50.9655 4.8039 37° Northeast 421 484 38,000  Climbing FlightAware ADS-B
11:20AM 50.7835 4.5884 37° Northeast 454 522 37,900  Descending FlightAware UK
11:20AM 50.7660 4.5680 37° Northeast 419 482 38,000 60 Climbing FlightAware
11:21AM 50.7090 4.5000 37° Northeast 417 480 38,000  Level FlightAware
11:21AM 50.6809 4.4670 37° Northeast 456 525 38,000  Level FlightAware UK
11:21AM 50.6660 4.4500 37° Northeast 415 478 38,000  Level FlightAware
11:22AM 50.6347 4.4126 37° Northeast 454 522 38,000  Level FlightAware UK
11:22AM 50.5885 4.3583 37° Northeast 452 520 38,000  Level FlightAware UK
11:22AM 50.5890 4.3600 37° Northeast 411 473 38,000  Level FlightAware
11:23AM 50.5230 4.2830 37° Northeast 409 471 38,000 -120 Level FlightAware
11:23AM 50.4989 4.2546 37° Northeast 452 520 37,900  Descending FlightAware UK
11:23AM 50.4834 4.2362 217° Southwest 409 471 38,000 60 Climbing FlightAware ADS-B (EGMD / LYX)
11:24AM 50.4240 4.1680 217° Southwest 409 471 38,000 -180 Level FlightAware
11:24AM 50.4089 4.1504 217° Southwest 456 525 37,900  Descending FlightAware UK
11:25AM 50.3640 4.0980 217° Southwest 409 471 38,000 -300 Climbing FlightAware
11:25AM 50.3445 4.0749 217° Southwest 452 520 37,700 -960 Descending FlightAware UK
11:26AM 50.2850 4.0070 217° Southwest 405 466 37,200 -780 Descending FlightAware
11:26AM 50.2624 3.9801 217° Southwest 452 520 37,000 1,920 Descending FlightAware UK
11:26AM 51.4400 5.3790 36° Northeast 427 491 38,000 -180 Climbing FlightAware ADS-B
11:27AM 50.1886 3.8989 36° Northeast 1 1 36,900 -1,380 Descending FlightAware UK
11:27AM 50.1780 3.8890 36° Northeast 409 471 37,000 240 Climbing FlightAware
11:27AM 50.1520 3.8610 215° Southwest 408 470 37,000  Level FlightAware ADS-B
11:28AM 50.1193 3.8251 215° Southwest 406 467 37,000  Level FlightAware ADS-B
11:28AM 50.0650 3.7653 215° Southwest 405 466 37,000  Level FlightAware ADS-B
11:29AM 50.0089 3.7042 215° Southwest 405 466 37,000  Level FlightAware ADS-B
11:29AM 50.0029 3.6976 215° Southwest 405 466 37,000  Level FlightAware ADS-B
11:29AM 49.9781 3.6708 215° Southwest 405 466 37,000  Level FlightAware ADS-B
11:30AM 49.9267 3.6151 215° Southwest 406 467 37,000  Level FlightAware ADS-B
11:30AM 49.8732 3.5571 215° Southwest 400 460 37,000  Level FlightAware ADS-B (EGMD / LYX)
11:31AM 49.8264 3.5064 215° Southwest 409 471 37,000  Level FlightAware ADS-B (EGMD / LYX)
11:32AM 49.7395 3.4134 215° Southwest 412 474 37,000  Level FlightAware ADS-B (EGMD / LYX)
11:32AM 49.6803 3.3498 215° Southwest 1 1 37,000  Level FlightAware UK
11:32AM 49.6810 3.3510 215° Southwest 410 472 37,000 60 Level FlightAware
11:33AM 49.6030 3.2670 215° Southwest 407 468 37,100  Climbing FlightAware
11:34AM 49.5500 3.2102 215° Southwest 1 1 37,000 -180 Descending FlightAware UK
11:34AM 49.5470 3.2070 215° Southwest 403 464 37,000  Level FlightAware
11:34AM 49.4970 3.1540 215° Southwest 400 460 37,000  Level FlightAware
11:35AM 49.4200 3.0730 215° Southwest 397 457 37,000 -120 Level FlightAware
11:35AM 49.4032 3.0532 215° Southwest 1 1 36,900  Descending FlightAware UK
11:36AM 49.3680 3.0180 215° Southwest 395 455 37,000  Climbing FlightAware
11:36AM 49.3490 2.9952 215° Southwest 1 1 36,900  Descending FlightAware UK
11:36AM 49.3120 2.9600 214° Southwest 396 456 37,000 60 Climbing FlightAware
11:37AM 49.2500 2.9130 214° Southwest 401 461 37,000 -180 Level FlightAware
11:37AM 49.2336 2.9023 214° Southwest 1 1 36,900  Descending FlightAware UK
11:37AM 49.2085 2.8838 205° Southwest 395 455 37,000  Climbing FlightAware ADS-B (EGMD / LYX)
11:38AM 49.1133 2.8168 205° Southwest 1 1 36,900  Descending FlightAware UK
11:38AM 49.1180 2.8180 205° Southwest 405 466 37,000 180 Climbing FlightAware
11:39AM 49.0621 2.7814 205° Southwest 1 1 37,000  Level FlightAware UK
11:39AM 49.0450 2.7760 205° Southwest 413 475 37,000  Level FlightAware
11:39AM 48.9860 2.7540 194° South 413 475 37,000  Level FlightAware
11:40AM 48.8620 2.7070 194° South 413 475 37,000  Level FlightAware
11:41AM 48.7880 2.6790 194° South 411 473 37,000 60 Level FlightAware
11:42AM 48.7250 2.6540 195° South 408 470 37,100  Climbing FlightAware
11:42AM 48.6490 2.6250 194° South 406 467 37,000 -120 Descending FlightAware
11:43AM 48.5870 2.6010 194° South 405 466 37,000  Level FlightAware
11:44AM 48.5120 2.5720 194° South 401 461 37,000  Level FlightAware
11:44AM 48.4310 2.5400 195° South 398 458 37,000  Level FlightAware
11:45AM 48.3440 2.5050 195° South 396 456 37,000  Level FlightAware
11:46AM 48.2690 2.4750 195° South 396 456 37,000  Level FlightAware
11:47AM 48.2010 2.4480 195° South 395 455 37,000  Level FlightAware
11:47AM 48.1370 2.4240 194° South 394 453 37,000  Level FlightAware
11:48AM 48.0570 2.3920 195° South 392 451 37,000  Level FlightAware
11:49AM 47.9760 2.3600 195° South 393 452 37,000  Level FlightAware
11:49AM 47.9060 2.3330 194° South 393 452 37,000  Level FlightAware
11:50AM 47.8010 2.2910 195° South 391 450 37,000  Level FlightAware
11:51AM 47.7320 2.2640 195° South 392 451 37,000  Level FlightAware
11:52AM 47.6670 2.2390 195° South 392 451 37,000  Level FlightAware
11:52AM 47.6030 2.2140 195° South 393 452 37,000  Level FlightAware
11:53AM 47.5260 2.1850 194° South 395 455 37,000  Level FlightAware
11:54AM 47.4500 2.1550 195° South 396 456 37,000  Level FlightAware
11:55AM 47.3620 2.1210 195° South 397 457 37,000  Level FlightAware
11:55AM 47.2990 2.0970 194° South 397 457 37,000  Level FlightAware
11:56AM 47.2330 2.0720 194° South 397 457 37,000  Level FlightAware
11:56AM 47.1630 2.0460 194° South 394 453 37,000  Level FlightAware
11:57AM 47.0930 2.0190 195° South 393 452 37,000  Level FlightAware
11:58AM 47.0210 1.9920 194° South 391 450 37,000  Level FlightAware
11:58AM 46.9600 1.9690 194° South 390 449 37,000  Level FlightAware
11:59AM 46.9080 1.9490 195° South 391 450 37,000  Level FlightAware
11:59AM 46.8510 1.9280 194° South 392 451 37,000  Level FlightAware
12:00PM 46.7970 1.9070 195° South 392 451 37,000  Level FlightAware
12:01PM 46.7260 1.8810 194° South 394 453 37,000  Level FlightAware
12:02PM 46.6210 1.8420 194° South 394 453 37,000  Level FlightAware
12:02PM 46.5490 1.8150 194° South 394 453 37,000  Level FlightAware
12:03PM 46.4850 1.7910 194° South 396 456 37,000  Level FlightAware
12:03PM 46.4210 1.7670 194° South 396 456 37,000  Level FlightAware
12:04PM 46.3600 1.7440 195° South 397 457 37,000  Level FlightAware
12:05PM 46.2980 1.7220 194° South 397 457 37,000  Level FlightAware
12:05PM 46.2290 1.6960 195° South 398 458 37,000  Level FlightAware
12:06PM 46.1700 1.6750 194° South 400 460 37,000  Level FlightAware
12:06PM 46.0930 1.6460 195° South 399 459 37,000 60 Level FlightAware
12:07PM 46.0240 1.6210 194° South 396 456 37,100  Climbing FlightAware
12:08PM 45.9410 1.5920 194° South 397 457 37,000 -120 Descending FlightAware
12:08PM 45.8860 1.5710 195° South 398 458 37,000  Level FlightAware
12:09PM 45.8160 1.5460 194° South 397 457 37,000  Level FlightAware
12:10PM 45.7410 1.5190 194° South 400 460 37,000  Level FlightAware
12:10PM 45.6750 1.4950 194° South 401 461 37,000  Level FlightAware
12:11PM 45.5990 1.4680 194° South 401 461 37,000  Level FlightAware
12:12PM 45.5350 1.4450 194° South 401 461 37,000  Level FlightAware
12:13PM 45.4490 1.4140 194° South 402 463 37,000  Level FlightAware
12:13PM 45.3810 1.3900 194° South 402 463 37,000  Level FlightAware
12:14PM 45.3020 1.3620 194° South 400 460 37,000  Level FlightAware
12:14PM 45.2390 1.3400 194° South 398 458 37,000  Level FlightAware
12:15PM 45.1730 1.3170 194° South 397 457 37,000  Level FlightAware
12:16PM 45.1040 1.2920 194° South 396 456 37,000  Level FlightAware
12:16PM 45.0390 1.2690 194° South 394 453 37,000  Level FlightAware
12:17PM 44.9810 1.2490 194° South 392 451 37,000  Level FlightAware
12:18PM 44.8510 1.2070 193° South 393 452 37,000  Level FlightAware
12:19PM 44.7710 1.1830 192° South 394 453 37,000  Level FlightAware
12:20PM 44.6840 1.1550 193° South 394 453 37,000  Level FlightAware
12:20PM 44.6300 1.1390 192° South 393 452 37,000  Level FlightAware
12:21PM 44.5040 1.1000 192° South 393 452 37,000  Level FlightAware
12:22PM 44.4480 1.0830 192° South 394 453 37,000  Level FlightAware
12:23PM 44.3740 1.0600 193° South 397 457 37,000  Level FlightAware
12:23PM 44.3110 1.0410 192° South 398 458 37,000  Level FlightAware
12:24PM 44.2440 1.0200 193° South 396 456 37,000  Level FlightAware
12:24PM 44.1790 1.0000 192° South 395 455 37,000  Level FlightAware
12:25PM 44.1150 0.9810 192° South 391 450 37,000  Level FlightAware
12:25PM 44.0670 0.9660 193° South 390 449 37,000  Level FlightAware
12:26PM 44.0020 0.9460 192° South 389 448 37,000  Level FlightAware
12:27PM 43.9200 0.9220 192° South 386 444 37,000  Level FlightAware
12:27PM 43.8630 0.9050 192° South 385 443 37,000  Level FlightAware
12:28PM 43.7870 0.8810 193° South 384 442 37,000  Level FlightAware
12:29PM 43.7270 0.8630 192° South 383 441 37,000  Level FlightAware
12:29PM 43.6680 0.8460 192° South 383 441 37,000  Level FlightAware
12:30PM 43.5570 0.8120 193° South 387 445 37,000  Level FlightAware
12:31PM 43.4950 0.7940 192° South 391 450 37,000  Level FlightAware
12:31PM 43.4350 0.7760 192° South 393 452 37,000  Level FlightAware
12:33PM 43.3150 0.7410 192° South 395 455 37,000  Level FlightAware
12:33PM 43.2620 0.7250 192° South 397 457 37,000  Level FlightAware
12:34PM 43.1790 0.7000 192° South 398 458 37,000  Level FlightAware
12:35PM 43.0740 0.6690 192° South 402 463 37,000  Level FlightAware
12:35PM 43.0010 0.6480 192° South 403 464 37,000  Level FlightAware
12:36PM 42.9470 0.6320 192° South 404 465 37,000  Level FlightAware
12:37PM 42.8760 0.6120 192° South 408 470 37,000  Level FlightAware
12:37PM 42.8100 0.5920 193° South 408 470 37,000  Level FlightAware
12:38PM 42.7400 0.5720 192° South 411 473 37,000  Level FlightAware
12:38PM 42.6680 0.5510 192° South 416 479 37,000  Level FlightAware
12:39PM 42.5960 0.5330 190° South 416 479 37,000  Level FlightAware
12:40PM 42.5320 0.5170 190° South 414 476 37,000  Level FlightAware
12:40PM 42.4520 0.4970 190° South 409 471 37,000  Level FlightAware
12:41PM 42.3910 0.4810 191° South 407 468 37,000  Level FlightAware
12:42PM 42.3100 0.4600 191° South 406 467 37,000  Level FlightAware
12:42PM 42.2450 0.4440 190° South 405 466 37,000  Level FlightAware
12:43PM 42.1760 0.4260 191° South 405 466 37,000  Level FlightAware
12:43PM 42.1040 0.4080 191° South 406 467 37,000  Level FlightAware
12:44PM 42.0410 0.3920 191° South 405 466 37,000  Level FlightAware
12:45PM 41.9750 0.3750 191° South 403 464 37,000  Level FlightAware
12:45PM 41.8843 0.3528 190° South 401 461 37,000  Level FlightAware ADS-B
12:46PM 41.8077 0.3336 191° South 401 461 37,000  Level FlightAware ADS-B
12:47PM 41.7334 0.3150 191° South 401 461 37,000  Level FlightAware ADS-B
12:48PM 41.6160 0.2860 191° South 404 465 37,000  Level FlightAware
12:49PM 41.5592 0.2687 191° South  Level Estimated
12:49PM 41.5530 0.2700 191° South 405 466 37,000  Level FlightAware
12:49PM 41.4700 0.2490 191° South 406 467 37,000  Level FlightAware
12:50PM 41.3970 0.2310 190° South 409 471 37,000  Level FlightAware
12:50PM 41.3400 0.2170 190° South 415 478 37,000  Level FlightAware
12:51PM 41.2810 0.2030 190° South 417 480 37,000  Level FlightAware
12:51PM 41.2240 0.1890 190° South 421 484 37,000  Level FlightAware
12:52PM 41.1460 0.1690 191° South 422 486 37,000 60 Level FlightAware
12:53PM 41.0924 0.1504 195° South 419 482 37,100  Climbing FlightAware ADS-B
12:53PM 41.0290 0.1250 197° South 418 481 37,000  Descending FlightAware
12:54PM 40.9490 0.0920 197° South 410 472 37,100  Climbing FlightAware
12:55PM 40.8750 0.0620 197° South 406 467 37,000 -120 Descending FlightAware
12:55PM 40.8130 0.0380 196° South 402 463 37,000  Level FlightAware
12:56PM 40.7350 0.0070 197° South 400 460 37,000 -120 Level FlightAware
12:57PM 40.6740 -0.0170 197° South 402 463 36,900  Descending FlightAware
12:57PM 40.6030 -0.0460 197° South 405 466 37,000 60 Climbing FlightAware
12:58PM 40.5310 -0.0740 196° South 409 471 37,000 -660 Level FlightAware
12:59PM 40.4080 -0.1230 197° South 405 466 35,900 -1,500 Descending FlightAware
01:00PM 40.3460 -0.1480 197° South 400 460 34,500 -2,760 Descending FlightAware
01:01PM 40.2280 -0.1940 197° South 406 467 31,300 -2,220 Descending FlightAware
01:01PM 40.1690 -0.2170 197° South 419 482 31,000 -240 Descending FlightAware
01:02PM 40.0850 -0.2500 197° South 418 481 31,000  Level FlightAware
01:02PM 40.0450 -0.2660 197° South 416 479 31,000 -420 Level FlightAware
01:03PM 39.9170 -0.3160 197° South 415 478 30,400 -720 Descending FlightAware
01:04PM 39.8510 -0.3410 196° South 421 484 29,800 -1,080 Descending FlightAware
01:05PM 39.7870 -0.3670 197° South 426 490 29,200 -1,020 Descending FlightAware
01:05PM 39.7120 -0.3960 197° South 429 494 28,600 -960 Descending FlightAware
01:06PM 39.6310 -0.4270 196° South 431 496 27,900 -1,020 Descending FlightAware
01:07PM 39.5520 -0.4580 197° South 431 496 27,200 -1,020 Descending FlightAware
01:07PM 39.4820 -0.4850 197° South 427 491 26,600 -960 Descending FlightAware
01:08PM 39.4060 -0.5120 195° South 424 488 26,000 -1,080 Descending FlightAware
01:09PM 39.3230 -0.5410 195° South 419 482 25,100 -1,920 Descending FlightAware
01:09PM 39.2610 -0.5630 195° South 416 479 23,600 -2,880 Descending FlightAware
01:10PM 39.1900 -0.5880 195° South 412 474 21,800 -2,940 Descending FlightAware
01:11PM 39.1070 -0.6170 195° South 408 470 19,600 -2,700 Descending FlightAware
01:11PM 39.0620 -0.6330 195° South 406 467 18,400 -2,940 Descending FlightAware
01:12PM 39.0000 -0.6550 195° South 396 456 16,800 -3,000 Descending FlightAware
01:13PM 38.8950 -0.6920 195° South 372 428 13,900 -2,760 Descending FlightAware
01:13PM 38.8330 -0.7130 195° South 360 414 12,200 -2,220 Descending FlightAware
01:14PM 38.7760 -0.7330 195° South 336 387 11,200 -1,680 Descending FlightAware
01:14PM 38.7420 -0.7450 195° South 343 395 10,600 -1,080 Descending FlightAware
01:15PM 38.6790 -0.7680 196° South 340 391 10,100 -1,020 Descending FlightAware
01:16PM 38.6130 -0.7910 195° South 333 383 9,200 -1,200 Descending FlightAware
01:16PM 38.5700 -0.8060 195° South 308 354 8,600 -1,080 Descending FlightAware
01:17PM 38.5250 -0.8370 208° Southwest 281 323 8,000 -840 Descending FlightAware
01:17PM 38.5030 -0.8710 230° Southwest 262 302 7,700 -720 Descending FlightAware
01:18PM 38.4660 -0.9090 219° Southwest 244 281 7,200 -900 Descending FlightAware
01:18PM 38.4470 -0.9270 217° Southwest 247 284 6,700 -1,380 Descending FlightAware
01:19PM 38.4110 -0.9500 207° Southwest 250 288 5,900 -780 Descending FlightAware
01:20PM 38.3690 -0.9730 203° Southwest 222 255 5,800 -180 Descending FlightAware
01:20PM 38.3390 -0.9560 156° South 223 257 5,700 -420 Descending FlightAware
01:21PM 38.3330 -0.9230 103° East 219 252 5,400 -900 Descending FlightAware
01:21PM 38.3280 -0.8850 100° East 217 250 4,900 -1,200 Descending FlightAware
01:22PM 38.3210 -0.8360 100° East 202 232 4,000 -1,200 Descending FlightAware
01:22PM 38.3170 -0.8100 101° East 199 229 3,600 -1,080 Descending FlightAware
01:23PM 38.3110 -0.7620 99° East 190 219 2,900 -1,020 Descending FlightAware
01:23PM 38.3060 -0.7300 101° East 188 216 2,400 -960 Descending FlightAware
01:24PM 38.3030 -0.7050 99° East 185 213 2,000 -960 Descending FlightAware
01:24PM 38.2970 -0.6650 101° East 152 175 1,400 -900 Descending FlightAware
01:25PM 38.2930 -0.6320 99° East 137 158 900 -720 Descending FlightAware
01:26PM 38.2890 -0.6050 101° East 135 155 500 -720 Descending FlightAware
01:26PM 38.2850 -0.5770 100° East 137 158 100 -660 Descending FlightAware
01:27PM 38.2830 -0.5630 100° East 120 138 -360 Descending FlightAware
01:27PM 38.2800 -0.5470 103° East 120 138  Level FlightAware
01:30PM 38.2822 -0.5582 284° West  Level Estimated
01:31PM 38.2822 -0.5582 108° East  Level Estimated
01:32PM 38.2822 -0.5582 108° East  Level Estimated
01:33PM 38.2822 -0.5582 108° East  Level Estimated
01:34PM 38.2822 -0.5582 108° East  Level Estimated